sensor_id;sensor_type;location;lat;lon;timestamp;P1;durP1;ratioP1;P2;durP2;ratioP2
71771;SDS011;59606;52.138;5.424;2022-09-30T00:01:05;6.18;;;1.88;;
71771;SDS011;59606;52.138;5.424;2022-09-30T00:03:31;2.97;;;1.75;;
71771;SDS011;59606;52.138;5.424;2022-09-30T00:05:59;4.53;;;2.00;;
71771;SDS011;59606;52.138;5.424;2022-09-30T00:08:33;6.37;;;2.13;;
71771;SDS011;59606;52.138;5.424;2022-09-30T00:11:02;3.30;;;1.50;;
71771;SDS011;59606;52.138;5.424;2022-09-30T00:13:33;3.55;;;1.73;;
71771;SDS011;59606;52.138;5.424;2022-09-30T00:16:01;4.40;;;1.70;;
71771;SDS011;59606;52.138;5.424;2022-09-30T00:18:28;3.25;;;1.45;;
71771;SDS011;59606;52.138;5.424;2022-09-30T00:20:55;4.63;;;1.90;;
71771;SDS011;59606;52.138;5.424;2022-09-30T00:23:22;4.40;;;2.53;;
71771;SDS011;59606;52.138;5.424;2022-09-30T00:25:49;4.57;;;1.67;;
71771;SDS011;59606;52.138;5.424;2022-09-30T00:28:16;6.38;;;1.63;;
71771;SDS011;59606;52.138;5.424;2022-09-30T00:30:43;3.00;;;1.58;;
71771;SDS011;59606;52.138;5.424;2022-09-30T00:33:09;11.40;;;2.17;;
71771;SDS011;59606;52.138;5.424;2022-09-30T00:35:36;3.63;;;1.70;;
71771;SDS011;59606;52.138;5.424;2022-09-30T00:38:03;4.30;;;1.92;;
71771;SDS011;59606;52.138;5.424;2022-09-30T00:40:29;3.42;;;1.42;;
71771;SDS011;59606;52.138;5.424;2022-09-30T00:42:56;3.92;;;1.73;;
71771;SDS011;59606;52.138;5.424;2022-09-30T00:45:27;5.07;;;2.00;;
71771;SDS011;59606;52.138;5.424;2022-09-30T00:48:04;3.63;;;1.67;;
71771;SDS011;59606;52.138;5.424;2022-09-30T00:50:37;3.30;;;1.83;;
71771;SDS011;59606;52.138;5.424;2022-09-30T00:58:30;4.00;;;1.40;;
71771;SDS011;59606;52.138;5.424;2022-09-30T01:01:01;5.57;;;1.80;;
71771;SDS011;59606;52.138;5.424;2022-09-30T01:03:33;4.78;;;1.85;;
71771;SDS011;59606;52.138;5.424;2022-09-30T01:06:06;3.03;;;1.35;;
71771;SDS011;59606;52.138;5.424;2022-09-30T01:08:35;4.53;;;1.65;;
71771;SDS011;59606;52.138;5.424;2022-09-30T01:11:04;4.37;;;1.47;;
71771;SDS011;59606;52.138;5.424;2022-09-30T01:13:33;5.18;;;1.48;;
71771;SDS011;59606;52.138;5.424;2022-09-30T01:35:26;4.13;;;1.42;;
71771;SDS011;59606;52.138;5.424;2022-09-30T01:38:20;3.20;;;1.43;;
71771;SDS011;59606;52.138;5.424;2022-09-30T01:43:53;3.50;;;1.75;;
71771;SDS011;59606;52.138;5.424;2022-09-30T01:46:34;4.75;;;1.58;;
71771;SDS011;59606;52.138;5.424;2022-09-30T01:49:11;4.22;;;1.50;;
71771;SDS011;59606;52.138;5.424;2022-09-30T01:51:50;3.20;;;1.23;;
71771;SDS011;59606;52.138;5.424;2022-09-30T01:57:05;3.25;;;1.30;;
71771;SDS011;59606;52.138;5.424;2022-09-30T01:59:38;2.90;;;1.52;;
71771;SDS011;59606;52.138;5.424;2022-09-30T02:04:54;3.63;;;1.60;;
71771;SDS011;59606;52.138;5.424;2022-09-30T02:07:28;4.65;;;1.45;;
71771;SDS011;59606;52.138;5.424;2022-09-30T02:10:09;3.20;;;1.15;;
71771;SDS011;59606;52.138;5.424;2022-09-30T02:12:42;4.28;;;1.63;;
71771;SDS011;59606;52.138;5.424;2022-09-30T02:15:19;4.20;;;1.27;;
71771;SDS011;59606;52.138;5.424;2022-09-30T02:17:55;2.10;;;1.07;;
71771;SDS011;59606;52.138;5.424;2022-09-30T02:20:35;2.80;;;1.20;;
71771;SDS011;59606;52.138;5.424;2022-09-30T02:23:11;5.32;;;1.30;;
71771;SDS011;59606;52.138;5.424;2022-09-30T02:25:43;3.45;;;1.35;;
71771;SDS011;59606;52.138;5.424;2022-09-30T02:28:19;2.78;;;1.20;;
71771;SDS011;59606;52.138;5.424;2022-09-30T02:30:55;2.90;;;1.23;;
71771;SDS011;59606;52.138;5.424;2022-09-30T02:33:28;5.28;;;1.55;;
71771;SDS011;59606;52.138;5.424;2022-09-30T02:36:09;2.85;;;1.50;;
71771;SDS011;59606;52.138;5.424;2022-09-30T02:38:42;4.03;;;1.60;;
71771;SDS011;59606;52.138;5.424;2022-09-30T02:41:16;6.30;;;1.25;;
71771;SDS011;59606;52.138;5.424;2022-09-30T02:43:47;2.67;;;1.43;;
71771;SDS011;59606;52.138;5.424;2022-09-30T02:51:47;2.70;;;1.10;;
71771;SDS011;59606;52.138;5.424;2022-09-30T02:54:23;3.13;;;1.38;;
71771;SDS011;59606;52.138;5.424;2022-09-30T02:57:29;3.20;;;1.57;;
71771;SDS011;59606;52.138;5.424;2022-09-30T02:59:58;4.72;;;1.25;;
71771;SDS011;59606;52.138;5.424;2022-09-30T03:02:28;4.30;;;1.50;;
71771;SDS011;59606;52.138;5.424;2022-09-30T03:04:55;2.40;;;1.10;;
71771;SDS011;59606;52.138;5.424;2022-09-30T03:07:21;3.25;;;1.13;;
71771;SDS011;59606;52.138;5.424;2022-09-30T03:09:48;2.63;;;1.30;;
71771;SDS011;59606;52.138;5.424;2022-09-30T03:18:01;2.75;;;1.50;;
71771;SDS011;59606;52.138;5.424;2022-09-30T03:20:45;2.72;;;1.40;;
71771;SDS011;59606;52.138;5.424;2022-09-30T03:23:44;2.80;;;1.30;;
71771;SDS011;59606;52.138;5.424;2022-09-30T03:34:59;6.15;;;1.40;;
71771;SDS011;59606;52.138;5.424;2022-09-30T03:37:44;3.80;;;1.73;;
71771;SDS011;59606;52.138;5.424;2022-09-30T03:40:36;3.60;;;1.80;;
71771;SDS011;59606;52.138;5.424;2022-09-30T03:43:14;3.47;;;2.03;;
71771;SDS011;59606;52.138;5.424;2022-09-30T03:45:57;5.03;;;2.00;;
71771;SDS011;59606;52.138;5.424;2022-09-30T03:48:38;5.32;;;2.28;;
71771;SDS011;59606;52.138;5.424;2022-09-30T03:51:07;5.50;;;2.40;;
71771;SDS011;59606;52.138;5.424;2022-09-30T03:53:41;3.70;;;1.70;;
71771;SDS011;59606;52.138;5.424;2022-09-30T03:56:09;5.75;;;2.47;;
71771;SDS011;59606;52.138;5.424;2022-09-30T03:58:35;5.10;;;2.28;;
71771;SDS011;59606;52.138;5.424;2022-09-30T04:01:16;3.92;;;2.08;;
71771;SDS011;59606;52.138;5.424;2022-09-30T04:03:47;6.33;;;2.30;;
71771;SDS011;59606;52.138;5.424;2022-09-30T04:06:18;4.60;;;1.95;;
71771;SDS011;59606;52.138;5.424;2022-09-30T04:08:46;4.88;;;1.95;;
71771;SDS011;59606;52.138;5.424;2022-09-30T04:11:13;4.63;;;2.22;;
71771;SDS011;59606;52.138;5.424;2022-09-30T04:13:39;4.68;;;2.08;;
71771;SDS011;59606;52.138;5.424;2022-09-30T04:16:06;3.70;;;2.00;;
71771;SDS011;59606;52.138;5.424;2022-09-30T04:18:34;4.38;;;2.20;;
71771;SDS011;59606;52.138;5.424;2022-09-30T04:21:05;4.97;;;2.17;;
71771;SDS011;59606;52.138;5.424;2022-09-30T04:23:34;5.70;;;2.13;;
71771;SDS011;59606;52.138;5.424;2022-09-30T04:26:08;3.90;;;1.65;;
71771;SDS011;59606;52.138;5.424;2022-09-30T04:28:37;4.27;;;1.90;;
71771;SDS011;59606;52.138;5.424;2022-09-30T04:31:04;5.32;;;2.25;;
71771;SDS011;59606;52.138;5.424;2022-09-30T04:33:31;3.33;;;1.95;;
71771;SDS011;59606;52.138;5.424;2022-09-30T04:35:58;4.57;;;2.30;;
71771;SDS011;59606;52.138;5.424;2022-09-30T04:38:26;3.78;;;1.85;;
71771;SDS011;59606;52.138;5.424;2022-09-30T04:40:53;5.87;;;2.13;;
71771;SDS011;59606;52.138;5.424;2022-09-30T04:43:20;4.15;;;2.00;;
71771;SDS011;59606;52.138;5.424;2022-09-30T04:45:49;5.45;;;2.10;;
71771;SDS011;59606;52.138;5.424;2022-09-30T04:48:17;3.65;;;1.80;;
71771;SDS011;59606;52.138;5.424;2022-09-30T04:50:44;3.22;;;1.95;;
71771;SDS011;59606;52.138;5.424;2022-09-30T04:53:10;3.73;;;2.07;;
71771;SDS011;59606;52.138;5.424;2022-09-30T04:55:40;3.85;;;2.10;;
71771;SDS011;59606;52.138;5.424;2022-09-30T04:58:07;3.65;;;2.00;;
71771;SDS011;59606;52.138;5.424;2022-09-30T05:00:34;5.95;;;1.92;;
71771;SDS011;59606;52.138;5.424;2022-09-30T05:03:01;3.83;;;1.77;;
71771;SDS011;59606;52.138;5.424;2022-09-30T05:05:28;2.87;;;1.53;;
71771;SDS011;59606;52.138;5.424;2022-09-30T05:07:58;4.03;;;1.42;;
71771;SDS011;59606;52.138;5.424;2022-09-30T05:10:26;4.13;;;1.55;;
71771;SDS011;59606;52.138;5.424;2022-09-30T05:12:53;6.65;;;1.50;;
71771;SDS011;59606;52.138;5.424;2022-09-30T05:15:20;4.32;;;1.92;;
71771;SDS011;59606;52.138;5.424;2022-09-30T05:17:49;1.77;;;1.13;;
71771;SDS011;59606;52.138;5.424;2022-09-30T05:20:15;2.60;;;1.25;;
71771;SDS011;59606;52.138;5.424;2022-09-30T05:22:46;2.10;;;1.08;;
71771;SDS011;59606;52.138;5.424;2022-09-30T05:25:13;2.78;;;1.25;;
71771;SDS011;59606;52.138;5.424;2022-09-30T05:27:39;3.15;;;1.52;;
71771;SDS011;59606;52.138;5.424;2022-09-30T05:30:06;2.40;;;1.20;;
71771;SDS011;59606;52.138;5.424;2022-09-30T05:32:32;2.25;;;1.13;;
71771;SDS011;59606;52.138;5.424;2022-09-30T05:34:59;2.47;;;1.30;;
71771;SDS011;59606;52.138;5.424;2022-09-30T05:37:28;4.88;;;2.33;;
71771;SDS011;59606;52.138;5.424;2022-09-30T05:39:55;11.23;;;5.20;;
71771;SDS011;59606;52.138;5.424;2022-09-30T05:42:22;10.47;;;4.90;;
71771;SDS011;59606;52.138;5.424;2022-09-30T05:44:48;12.98;;;5.68;;
71771;SDS011;59606;52.138;5.424;2022-09-30T05:47:15;12.23;;;5.95;;
71771;SDS011;59606;52.138;5.424;2022-09-30T05:49:42;13.38;;;5.72;;
71771;SDS011;59606;52.138;5.424;2022-09-30T05:52:09;10.40;;;3.85;;
71771;SDS011;59606;52.138;5.424;2022-09-30T05:54:36;3.80;;;2.20;;
71771;SDS011;59606;52.138;5.424;2022-09-30T05:57:03;6.93;;;2.10;;
71771;SDS011;59606;52.138;5.424;2022-09-30T05:59:29;4.07;;;2.20;;
71771;SDS011;59606;52.138;5.424;2022-09-30T06:01:56;9.40;;;2.25;;
71771;SDS011;59606;52.138;5.424;2022-09-30T06:04:22;3.92;;;2.00;;
71771;SDS011;59606;52.138;5.424;2022-09-30T06:06:49;4.07;;;2.20;;
71771;SDS011;59606;52.138;5.424;2022-09-30T06:09:15;8.88;;;2.60;;
71771;SDS011;59606;52.138;5.424;2022-09-30T06:11:42;4.80;;;2.17;;
71771;SDS011;59606;52.138;5.424;2022-09-30T06:14:08;10.23;;;3.22;;
71771;SDS011;59606;52.138;5.424;2022-09-30T06:16:35;7.13;;;2.40;;
71771;SDS011;59606;52.138;5.424;2022-09-30T06:19:01;5.77;;;2.50;;
71771;SDS011;59606;52.138;5.424;2022-09-30T06:21:28;5.05;;;2.63;;
71771;SDS011;59606;52.138;5.424;2022-09-30T06:23:54;5.90;;;2.83;;
71771;SDS011;59606;52.138;5.424;2022-09-30T06:26:21;7.13;;;3.83;;
71771;SDS011;59606;52.138;5.424;2022-09-30T06:28:47;7.18;;;3.42;;
71771;SDS011;59606;52.138;5.424;2022-09-30T06:31:15;7.80;;;4.20;;
71771;SDS011;59606;52.138;5.424;2022-09-30T06:33:41;9.13;;;4.22;;
71771;SDS011;59606;52.138;5.424;2022-09-30T06:36:08;9.18;;;3.42;;
71771;SDS011;59606;52.138;5.424;2022-09-30T06:38:35;13.65;;;5.10;;
71771;SDS011;59606;52.138;5.424;2022-09-30T06:41:03;12.40;;;5.88;;
71771;SDS011;59606;52.138;5.424;2022-09-30T06:43:29;16.83;;;5.93;;
71771;SDS011;59606;52.138;5.424;2022-09-30T06:46:03;9.27;;;4.70;;
71771;SDS011;59606;52.138;5.424;2022-09-30T06:48:41;8.40;;;4.80;;
71771;SDS011;59606;52.138;5.424;2022-09-30T06:51:08;12.85;;;5.15;;
71771;SDS011;59606;52.138;5.424;2022-09-30T06:53:37;13.40;;;5.32;;
71771;SDS011;59606;52.138;5.424;2022-09-30T06:56:05;10.80;;;6.10;;
71771;SDS011;59606;52.138;5.424;2022-09-30T06:58:31;11.98;;;5.90;;
71771;SDS011;59606;52.138;5.424;2022-09-30T07:01:05;12.40;;;6.20;;
71771;SDS011;59606;52.138;5.424;2022-09-30T07:03:32;17.02;;;7.50;;
71771;SDS011;59606;52.138;5.424;2022-09-30T07:06:01;11.93;;;6.53;;
71771;SDS011;59606;52.138;5.424;2022-09-30T07:08:29;13.73;;;6.70;;
71771;SDS011;59606;52.138;5.424;2022-09-30T07:10:57;13.73;;;7.13;;
71771;SDS011;59606;52.138;5.424;2022-09-30T07:13:24;10.77;;;6.60;;
71771;SDS011;59606;52.138;5.424;2022-09-30T07:15:51;16.85;;;7.82;;
71771;SDS011;59606;52.138;5.424;2022-09-30T07:18:19;17.45;;;8.38;;
71771;SDS011;59606;52.138;5.424;2022-09-30T07:20:47;12.10;;;6.73;;
71771;SDS011;59606;52.138;5.424;2022-09-30T07:23:17;14.05;;;7.05;;
71771;SDS011;59606;52.138;5.424;2022-09-30T07:25:55;12.68;;;7.30;;
71771;SDS011;59606;52.138;5.424;2022-09-30T07:28:24;13.35;;;7.80;;
71771;SDS011;59606;52.138;5.424;2022-09-30T07:30:56;15.95;;;8.63;;
71771;SDS011;59606;52.138;5.424;2022-09-30T07:33:45;21.37;;;10.90;;
71771;SDS011;59606;52.138;5.424;2022-09-30T07:36:13;21.30;;;10.68;;
71771;SDS011;59606;52.138;5.424;2022-09-30T07:38:44;20.30;;;11.07;;
71771;SDS011;59606;52.138;5.424;2022-09-30T07:41:13;20.85;;;10.43;;
71771;SDS011;59606;52.138;5.424;2022-09-30T07:43:44;20.75;;;11.40;;
71771;SDS011;59606;52.138;5.424;2022-09-30T07:46:16;16.93;;;9.60;;
71771;SDS011;59606;52.138;5.424;2022-09-30T07:48:55;16.42;;;9.68;;
71771;SDS011;59606;52.138;5.424;2022-09-30T07:51:27;17.95;;;9.50;;
71771;SDS011;59606;52.138;5.424;2022-09-30T07:54:03;17.15;;;10.07;;
71771;SDS011;59606;52.138;5.424;2022-09-30T07:56:31;19.20;;;11.40;;
71771;SDS011;59606;52.138;5.424;2022-09-30T07:59:19;20.00;;;10.97;;
71771;SDS011;59606;52.138;5.424;2022-09-30T08:01:46;19.55;;;11.63;;
71771;SDS011;59606;52.138;5.424;2022-09-30T08:04:13;23.25;;;12.23;;
71771;SDS011;59606;52.138;5.424;2022-09-30T08:06:42;24.13;;;12.82;;
71771;SDS011;59606;52.138;5.424;2022-09-30T08:09:11;23.13;;;12.93;;
71771;SDS011;59606;52.138;5.424;2022-09-30T08:11:39;21.73;;;13.60;;
71771;SDS011;59606;52.138;5.424;2022-09-30T08:14:06;24.95;;;13.70;;
71771;SDS011;59606;52.138;5.424;2022-09-30T08:16:32;27.35;;;13.60;;
71771;SDS011;59606;52.138;5.424;2022-09-30T08:19:00;24.00;;;12.77;;
71771;SDS011;59606;52.138;5.424;2022-09-30T08:21:27;26.88;;;14.15;;
71771;SDS011;59606;52.138;5.424;2022-09-30T08:23:54;22.50;;;13.03;;
71771;SDS011;59606;52.138;5.424;2022-09-30T08:26:22;22.05;;;13.15;;
71771;SDS011;59606;52.138;5.424;2022-09-30T08:28:49;21.88;;;13.02;;
71771;SDS011;59606;52.138;5.424;2022-09-30T08:31:20;22.75;;;13.70;;
71771;SDS011;59606;52.138;5.424;2022-09-30T08:33:48;21.50;;;13.45;;
71771;SDS011;59606;52.138;5.424;2022-09-30T08:36:16;26.60;;;13.83;;
71771;SDS011;59606;52.138;5.424;2022-09-30T08:38:44;20.88;;;12.40;;
71771;SDS011;59606;52.138;5.424;2022-09-30T08:47:07;23.05;;;12.18;;
71771;SDS011;59606;52.138;5.424;2022-09-30T08:52:33;19.33;;;11.90;;
71771;SDS011;59606;52.138;5.424;2022-09-30T08:55:56;17.83;;;10.38;;
71771;SDS011;59606;52.138;5.424;2022-09-30T08:58:05;18.23;;;10.63;;
71771;SDS011;59606;52.138;5.424;2022-09-30T09:00:41;16.25;;;10.25;;
71771;SDS011;59606;52.138;5.424;2022-09-30T09:03:08;15.37;;;10.00;;
71771;SDS011;59606;52.138;5.424;2022-09-30T09:05:43;14.20;;;9.88;;
71771;SDS011;59606;52.138;5.424;2022-09-30T09:08:26;13.70;;;7.72;;
71771;SDS011;59606;52.138;5.424;2022-09-30T09:19:42;11.65;;;6.57;;
71771;SDS011;59606;52.138;5.424;2022-09-30T09:22:17;11.63;;;7.10;;
71771;SDS011;59606;52.138;5.424;2022-09-30T09:24:49;11.88;;;6.80;;
71771;SDS011;59606;52.138;5.424;2022-09-30T09:27:20;10.80;;;7.60;;
71771;SDS011;59606;52.138;5.424;2022-09-30T09:30:00;10.10;;;6.40;;
71771;SDS011;59606;52.138;5.424;2022-09-30T09:32:33;12.35;;;7.25;;
71771;SDS011;59606;52.138;5.424;2022-09-30T09:35:14;11.35;;;7.50;;
71771;SDS011;59606;52.138;5.424;2022-09-30T09:37:49;12.32;;;7.50;;
71771;SDS011;59606;52.138;5.424;2022-09-30T09:41:00;13.48;;;8.60;;
71771;SDS011;59606;52.138;5.424;2022-09-30T09:46:33;14.02;;;8.30;;
71771;SDS011;59606;52.138;5.424;2022-09-30T09:51:39;12.50;;;7.63;;
71771;SDS011;59606;52.138;5.424;2022-09-30T09:54:12;9.70;;;6.93;;
71771;SDS011;59606;52.138;5.424;2022-09-30T09:56:44;10.57;;;7.03;;
71771;SDS011;59606;52.138;5.424;2022-09-30T09:59:11;9.90;;;6.53;;
71771;SDS011;59606;52.138;5.424;2022-09-30T10:01:45;10.82;;;6.78;;
71771;SDS011;59606;52.138;5.424;2022-09-30T10:06:55;10.07;;;7.22;;
71771;SDS011;59606;52.138;5.424;2022-09-30T10:14:35;10.07;;;6.45;;
71771;SDS011;59606;52.138;5.424;2022-09-30T10:17:18;10.23;;;6.57;;
71771;SDS011;59606;52.138;5.424;2022-09-30T10:19:51;10.02;;;6.22;;
71771;SDS011;59606;52.138;5.424;2022-09-30T10:22:24;9.37;;;5.67;;
71771;SDS011;59606;52.138;5.424;2022-09-30T10:25:07;7.15;;;4.38;;
71771;SDS011;59606;52.138;5.424;2022-09-30T10:27:34;8.93;;;4.10;;
71771;SDS011;59606;52.138;5.424;2022-09-30T10:30:01;8.10;;;4.35;;
71771;SDS011;59606;52.138;5.424;2022-09-30T10:32:29;6.28;;;3.65;;
71771;SDS011;59606;52.138;5.424;2022-09-30T10:35:00;8.33;;;4.53;;
71771;SDS011;59606;52.138;5.424;2022-09-30T10:37:29;6.63;;;3.92;;
71771;SDS011;59606;52.138;5.424;2022-09-30T10:40:00;5.53;;;3.30;;
71771;SDS011;59606;52.138;5.424;2022-09-30T10:42:32;7.18;;;3.72;;
71771;SDS011;59606;52.138;5.424;2022-09-30T10:45:03;8.10;;;4.00;;
71771;SDS011;59606;52.138;5.424;2022-09-30T10:47:31;7.53;;;3.17;;
71771;SDS011;59606;52.138;5.424;2022-09-30T10:52:31;5.70;;;3.08;;
71771;SDS011;59606;52.138;5.424;2022-09-30T10:57:45;5.57;;;2.80;;
71771;SDS011;59606;52.138;5.424;2022-09-30T11:00:14;6.87;;;2.80;;
71771;SDS011;59606;52.138;5.424;2022-09-30T11:02:55;3.40;;;2.08;;
71771;SDS011;59606;52.138;5.424;2022-09-30T11:05:37;5.10;;;2.53;;
71771;SDS011;59606;52.138;5.424;2022-09-30T11:08:13;4.10;;;2.13;;
71771;SDS011;59606;52.138;5.424;2022-09-30T11:10:47;4.47;;;2.17;;
71771;SDS011;59606;52.138;5.424;2022-09-30T11:18:42;4.07;;;1.95;;
71771;SDS011;59606;52.138;5.424;2022-09-30T11:21:17;5.25;;;1.80;;
71771;SDS011;59606;52.138;5.424;2022-09-30T11:23:52;5.28;;;2.28;;
71771;SDS011;59606;52.138;5.424;2022-09-30T11:26:28;3.17;;;2.30;;
71771;SDS011;59606;52.138;5.424;2022-09-30T11:32:03;2.92;;;1.70;;
71771;SDS011;59606;52.138;5.424;2022-09-30T11:34:42;4.53;;;1.67;;
71771;SDS011;59606;52.138;5.424;2022-09-30T11:40:58;3.83;;;1.23;;
71771;SDS011;59606;52.138;5.424;2022-09-30T11:46:37;2.50;;;1.60;;
71771;SDS011;59606;52.138;5.424;2022-09-30T11:57:46;1.80;;;1.13;;
71771;SDS011;59606;52.138;5.424;2022-09-30T12:00:18;2.30;;;1.30;;
71771;SDS011;59606;52.138;5.424;2022-09-30T12:05:17;3.70;;;1.50;;
71771;SDS011;59606;52.138;5.424;2022-09-30T12:07:51;3.43;;;1.70;;
71771;SDS011;59606;52.138;5.424;2022-09-30T12:10:22;2.50;;;1.70;;
71771;SDS011;59606;52.138;5.424;2022-09-30T12:12:59;3.58;;;1.50;;
71771;SDS011;59606;52.138;5.424;2022-09-30T12:15:29;3.50;;;1.45;;
71771;SDS011;59606;52.138;5.424;2022-09-30T12:18:02;3.42;;;2.00;;
71771;SDS011;59606;52.138;5.424;2022-09-30T12:20:46;3.87;;;1.70;;
71771;SDS011;59606;52.138;5.424;2022-09-30T12:23:16;4.57;;;1.80;;
71771;SDS011;59606;52.138;5.424;2022-09-30T12:25:49;8.55;;;2.20;;
71771;SDS011;59606;52.138;5.424;2022-09-30T12:31:37;3.00;;;1.60;;
71771;SDS011;59606;52.138;5.424;2022-09-30T12:48:25;3.20;;;1.50;;
71771;SDS011;59606;52.138;5.424;2022-09-30T12:50:58;3.33;;;1.95;;
71771;SDS011;59606;52.138;5.424;2022-09-30T12:53:26;4.25;;;1.55;;
71771;SDS011;59606;52.138;5.424;2022-09-30T12:56:03;2.33;;;1.70;;
71771;SDS011;59606;52.138;5.424;2022-09-30T12:58:36;5.50;;;2.03;;
71771;SDS011;59606;52.138;5.424;2022-09-30T13:03:49;4.72;;;1.67;;
71771;SDS011;59606;52.138;5.424;2022-09-30T13:06:25;4.03;;;1.90;;
71771;SDS011;59606;52.138;5.424;2022-09-30T13:11:40;4.55;;;1.70;;
71771;SDS011;59606;52.138;5.424;2022-09-30T13:19:47;3.45;;;2.30;;
71771;SDS011;59606;52.138;5.424;2022-09-30T13:25:10;5.55;;;2.80;;
71771;SDS011;59606;52.138;5.424;2022-09-30T13:32:44;5.20;;;3.00;;
71771;SDS011;59606;52.138;5.424;2022-09-30T13:35:32;13.18;;;4.05;;
71771;SDS011;59606;52.138;5.424;2022-09-30T13:46:40;8.65;;;3.47;;
71771;SDS011;59606;52.138;5.424;2022-09-30T13:49:24;5.38;;;2.45;;
71771;SDS011;59606;52.138;5.424;2022-09-30T13:52:01;4.00;;;2.50;;
71771;SDS011;59606;52.138;5.424;2022-09-30T13:54:32;5.83;;;3.47;;
71771;SDS011;59606;52.138;5.424;2022-09-30T13:57:05;5.25;;;2.75;;
71771;SDS011;59606;52.138;5.424;2022-09-30T13:59:50;3.40;;;2.40;;
71771;SDS011;59606;52.138;5.424;2022-09-30T14:02:32;3.50;;;2.05;;
71771;SDS011;59606;52.138;5.424;2022-09-30T14:13:45;5.80;;;2.65;;
71771;SDS011;59606;52.138;5.424;2022-09-30T14:19:17;5.53;;;2.45;;
71771;SDS011;59606;52.138;5.424;2022-09-30T14:21:49;3.77;;;1.80;;
71771;SDS011;59606;52.138;5.424;2022-09-30T14:24:24;2.25;;;1.52;;
71771;SDS011;59606;52.138;5.424;2022-09-30T14:29:32;4.82;;;2.10;;
71771;SDS011;59606;52.138;5.424;2022-09-30T14:32:12;4.20;;;2.08;;
71771;SDS011;59606;52.138;5.424;2022-09-30T14:34:44;4.10;;;2.00;;
71771;SDS011;59606;52.138;5.424;2022-09-30T14:37:26;4.30;;;1.77;;
71771;SDS011;59606;52.138;5.424;2022-09-30T14:39:56;2.53;;;1.50;;
71771;SDS011;59606;52.138;5.424;2022-09-30T14:42:28;3.00;;;1.52;;
71771;SDS011;59606;52.138;5.424;2022-09-30T14:45:03;3.58;;;1.30;;
71771;SDS011;59606;52.138;5.424;2022-09-30T14:47:38;3.43;;;1.93;;
71771;SDS011;59606;52.138;5.424;2022-09-30T14:50:10;4.40;;;2.00;;
71771;SDS011;59606;52.138;5.424;2022-09-30T14:52:42;3.92;;;1.60;;
71771;SDS011;59606;52.138;5.424;2022-09-30T14:55:27;6.72;;;2.30;;
71771;SDS011;59606;52.138;5.424;2022-09-30T14:58:13;4.57;;;2.17;;
71771;SDS011;59606;52.138;5.424;2022-09-30T15:03:37;3.42;;;1.98;;
71771;SDS011;59606;52.138;5.424;2022-09-30T15:06:15;4.57;;;2.10;;
71771;SDS011;59606;52.138;5.424;2022-09-30T15:08:46;3.83;;;1.80;;
71771;SDS011;59606;52.138;5.424;2022-09-30T15:11:20;4.93;;;2.30;;
71771;SDS011;59606;52.138;5.424;2022-09-30T15:13:53;5.13;;;2.30;;
71771;SDS011;59606;52.138;5.424;2022-09-30T15:16:25;4.47;;;1.73;;
71771;SDS011;59606;52.138;5.424;2022-09-30T15:18:56;6.43;;;2.00;;
71771;SDS011;59606;52.138;5.424;2022-09-30T15:21:24;6.38;;;2.60;;
71771;SDS011;59606;52.138;5.424;2022-09-30T15:23:56;5.63;;;2.47;;
71771;SDS011;59606;52.138;5.424;2022-09-30T15:26:25;4.80;;;2.43;;
71771;SDS011;59606;52.138;5.424;2022-09-30T15:28:52;4.55;;;2.70;;
71771;SDS011;59606;52.138;5.424;2022-09-30T15:33:46;3.85;;;2.80;;
71771;SDS011;59606;52.138;5.424;2022-09-30T15:36:14;4.32;;;2.65;;
71771;SDS011;59606;52.138;5.424;2022-09-30T15:38:46;6.13;;;2.63;;
71771;SDS011;59606;52.138;5.424;2022-09-30T15:41:15;5.32;;;2.80;;
71771;SDS011;59606;52.138;5.424;2022-09-30T15:48:47;6.05;;;2.85;;
71771;SDS011;59606;52.138;5.424;2022-09-30T15:51:27;8.30;;;3.13;;
71771;SDS011;59606;52.138;5.424;2022-09-30T15:54:01;6.20;;;2.72;;
71771;SDS011;59606;52.138;5.424;2022-09-30T15:56:48;5.35;;;2.92;;
71771;SDS011;59606;52.138;5.424;2022-09-30T15:59:15;9.43;;;2.60;;
71771;SDS011;59606;52.138;5.424;2022-09-30T16:04:22;8.97;;;2.57;;
71771;SDS011;59606;52.138;5.424;2022-09-30T16:09:21;5.85;;;2.47;;
71771;SDS011;59606;52.138;5.424;2022-09-30T16:14:41;4.95;;;3.15;;
71771;SDS011;59606;52.138;5.424;2022-09-30T16:17:53;4.83;;;2.70;;
71771;SDS011;59606;52.138;5.424;2022-09-30T16:20:05;6.97;;;2.90;;
71771;SDS011;59606;52.138;5.424;2022-09-30T16:27:48;4.03;;;2.70;;
71771;SDS011;59606;52.138;5.424;2022-09-30T16:30:21;5.43;;;2.60;;
71771;SDS011;59606;52.138;5.424;2022-09-30T16:32:49;6.50;;;2.88;;
71771;SDS011;59606;52.138;5.424;2022-09-30T16:35:19;5.75;;;2.80;;
71771;SDS011;59606;52.138;5.424;2022-09-30T16:37:48;5.50;;;2.58;;
71771;SDS011;59606;52.138;5.424;2022-09-30T16:40:18;5.80;;;2.78;;
71771;SDS011;59606;52.138;5.424;2022-09-30T16:42:46;5.03;;;3.03;;
71771;SDS011;59606;52.138;5.424;2022-09-30T16:45:13;7.00;;;3.47;;
71771;SDS011;59606;52.138;5.424;2022-09-30T16:47:40;5.93;;;3.08;;
71771;SDS011;59606;52.138;5.424;2022-09-30T16:50:18;4.90;;;3.30;;
71771;SDS011;59606;52.138;5.424;2022-09-30T16:52:49;6.20;;;2.90;;
71771;SDS011;59606;52.138;5.424;2022-09-30T16:55:15;4.83;;;2.87;;
71771;SDS011;59606;52.138;5.424;2022-09-30T16:57:42;6.28;;;3.10;;
71771;SDS011;59606;52.138;5.424;2022-09-30T17:00:13;6.38;;;2.92;;
71771;SDS011;59606;52.138;5.424;2022-09-30T17:02:46;4.70;;;2.83;;
71771;SDS011;59606;52.138;5.424;2022-09-30T17:05:18;6.28;;;3.60;;
71771;SDS011;59606;52.138;5.424;2022-09-30T17:07:48;6.83;;;3.90;;
71771;SDS011;59606;52.138;5.424;2022-09-30T17:12:57;4.75;;;3.30;;
71771;SDS011;59606;52.138;5.424;2022-09-30T17:15:29;5.80;;;3.70;;
71771;SDS011;59606;52.138;5.424;2022-09-30T17:17:57;7.18;;;3.63;;
71771;SDS011;59606;52.138;5.424;2022-09-30T17:20:24;8.53;;;3.80;;
71771;SDS011;59606;52.138;5.424;2022-09-30T17:22:51;5.78;;;3.38;;
71771;SDS011;59606;52.138;5.424;2022-09-30T17:25:18;6.30;;;3.78;;
71771;SDS011;59606;52.138;5.424;2022-09-30T17:27:47;7.75;;;4.38;;
71771;SDS011;59606;52.138;5.424;2022-09-30T17:30:15;6.55;;;3.80;;
71771;SDS011;59606;52.138;5.424;2022-09-30T17:32:42;6.40;;;4.20;;
71771;SDS011;59606;52.138;5.424;2022-09-30T17:35:09;6.15;;;3.95;;
71771;SDS011;59606;52.138;5.424;2022-09-30T17:37:37;10.27;;;4.15;;
71771;SDS011;59606;52.138;5.424;2022-09-30T17:40:10;8.05;;;4.43;;
71771;SDS011;59606;52.138;5.424;2022-09-30T17:42:55;6.35;;;3.65;;
71771;SDS011;59606;52.138;5.424;2022-09-30T17:45:36;7.50;;;3.90;;
71771;SDS011;59606;52.138;5.424;2022-09-30T17:48:09;6.78;;;4.28;;
71771;SDS011;59606;52.138;5.424;2022-09-30T17:50:36;7.85;;;3.55;;
71771;SDS011;59606;52.138;5.424;2022-09-30T17:53:04;8.30;;;3.78;;
71771;SDS011;59606;52.138;5.424;2022-09-30T17:55:31;7.45;;;3.65;;
71771;SDS011;59606;52.138;5.424;2022-09-30T17:57:59;7.07;;;3.90;;
71771;SDS011;59606;52.138;5.424;2022-09-30T18:00:28;6.35;;;3.95;;
71771;SDS011;59606;52.138;5.424;2022-09-30T18:02:56;8.15;;;4.10;;
71771;SDS011;59606;52.138;5.424;2022-09-30T18:05:22;6.47;;;3.72;;
71771;SDS011;59606;52.138;5.424;2022-09-30T18:07:52;6.30;;;3.90;;
71771;SDS011;59606;52.138;5.424;2022-09-30T18:10:19;6.63;;;4.37;;
71771;SDS011;59606;52.138;5.424;2022-09-30T18:12:46;8.88;;;4.28;;
71771;SDS011;59606;52.138;5.424;2022-09-30T18:15:17;10.23;;;4.68;;
71771;SDS011;59606;52.138;5.424;2022-09-30T18:17:43;12.65;;;4.43;;
71771;SDS011;59606;52.138;5.424;2022-09-30T18:20:10;8.77;;;4.15;;
71771;SDS011;59606;52.138;5.424;2022-09-30T18:22:37;8.50;;;4.33;;
71771;SDS011;59606;52.138;5.424;2022-09-30T18:25:04;8.50;;;4.18;;
71771;SDS011;59606;52.138;5.424;2022-09-30T18:27:51;6.70;;;4.00;;
71771;SDS011;59606;52.138;5.424;2022-09-30T18:30:21;6.88;;;3.80;;